createdAt,value
2019-03-19T00:00:12.337Z,12.50
2019-03-19T00:03:16.178Z,11.73
2019-03-19T00:06:20.102Z,11.40
2019-03-19T00:09:23.707Z,11.63
2019-03-19T00:12:27.318Z,11.23
2019-03-19T00:15:30.921Z,11.03
2019-03-19T00:18:34.813Z,11.13
2019-03-19T00:21:38.392Z,9.83
2019-03-19T00:24:42.309Z,10.63
2019-03-19T00:27:46.173Z,10.90
2019-03-19T00:30:49.789Z,10.50
2019-03-19T00:33:53.365Z,10.03
2019-03-19T00:36:57.260Z,9.80
2019-03-19T00:40:00.834Z,10.23
2019-03-19T00:43:04.484Z,9.67
2019-03-19T00:46:08.335Z,9.37
2019-03-19T00:49:11.905Z,9.33
2019-03-19T00:52:15.486Z,8.97
2019-03-19T00:55:19.060Z,9.20
2019-03-19T00:58:22.645Z,8.77
2019-03-19T01:01:26.248Z,8.67
2019-03-19T01:04:30.123Z,9.33
2019-03-19T01:07:33.707Z,9.10
2019-03-19T01:10:37.653Z,8.70
2019-03-19T01:13:41.304Z,8.07
2019-03-19T01:16:44.938Z,7.70
2019-03-19T01:19:48.860Z,8.83
2019-03-19T01:22:52.444Z,7.83
2019-03-19T01:25:56.556Z,7.67
2019-03-19T01:29:00.164Z,7.67
2019-03-19T01:32:03.775Z,7.70
2019-03-19T01:35:07.365Z,7.43
2019-03-19T01:38:11.186Z,7.20
2019-03-19T01:41:15.320Z,7.83
2019-03-19T01:44:18.928Z,7.03
2019-03-19T01:47:22.501Z,6.73
2019-03-19T01:50:26.435Z,6.60
2019-03-19T01:53:30.039Z,6.40
2019-03-19T01:56:33.620Z,6.33
2019-03-19T01:59:37.196Z,6.73
2019-03-19T02:02:40.772Z,6.47
2019-03-19T02:05:44.353Z,6.30
2019-03-19T02:08:47.935Z,6.00
2019-03-19T02:11:51.503Z,6.10
2019-03-19T02:14:55.398Z,6.10
2019-03-19T02:17:59.586Z,6.30
2019-03-19T02:21:03.493Z,6.37
2019-03-19T02:24:07.618Z,5.83
2019-03-19T02:27:11.241Z,6.53
2019-03-19T02:30:15.323Z,5.77
2019-03-19T02:33:18.906Z,5.97
2019-03-19T02:36:22.477Z,6.00
2019-03-19T02:39:26.070Z,5.77
2019-03-19T02:42:29.658Z,5.23
2019-03-19T02:45:33.330Z,5.40
2019-03-19T02:48:37.161Z,5.70
2019-03-19T02:51:40.762Z,5.40
2019-03-19T02:54:44.365Z,4.83
2019-03-19T02:57:47.933Z,4.63
2019-03-19T03:00:51.529Z,5.17
2019-03-19T03:03:55.505Z,4.90
2019-03-19T03:06:59.398Z,5.20
2019-03-19T03:10:03.035Z,5.07
2019-03-19T03:13:06.767Z,4.80
2019-03-19T03:16:10.362Z,4.60
2019-03-19T03:19:13.969Z,4.70
2019-03-19T03:22:17.556Z,4.90
2019-03-19T03:25:21.162Z,4.57
2019-03-19T03:28:24.773Z,4.83
2019-03-19T03:31:28.628Z,4.53
2019-03-19T03:34:33.046Z,4.40
2019-03-19T03:37:36.627Z,4.40
2019-03-19T03:40:40.582Z,4.00
2019-03-19T03:43:44.484Z,4.40
2019-03-19T03:46:48.061Z,4.23
2019-03-19T03:49:51.643Z,3.83
2019-03-19T03:52:55.507Z,4.63
2019-03-19T03:55:59.100Z,4.27
2019-03-19T03:59:02.781Z,4.37
2019-03-19T04:02:06.936Z,4.27
2019-03-19T04:05:10.785Z,3.83
2019-03-19T04:08:14.992Z,4.40
2019-03-19T04:11:18.579Z,3.90
2019-03-19T04:14:22.165Z,4.10
2019-03-19T04:17:25.772Z,3.67
2019-03-19T04:20:29.362Z,4.17
2019-03-19T04:23:33.054Z,3.70
2019-03-19T04:26:36.634Z,3.93
2019-03-19T04:29:40.228Z,3.77
2019-03-19T04:32:44.432Z,3.97
2019-03-19T04:35:48.012Z,3.60
2019-03-19T04:38:51.612Z,3.50
2019-03-19T04:41:55.550Z,2.87
2019-03-19T04:44:59.147Z,3.67
2019-03-19T04:48:03.676Z,3.13
2019-03-19T04:51:07.323Z,3.40
2019-03-19T04:54:10.937Z,3.57
2019-03-19T04:57:26.065Z,3.00
2019-03-19T05:00:20.966Z,3.17
2019-03-19T05:03:24.567Z,2.97
2019-03-19T05:06:28.466Z,3.63
2019-03-19T05:09:32.054Z,3.43
2019-03-19T05:12:35.687Z,3.30
2019-03-19T05:15:39.264Z,3.13
2019-03-19T05:18:43.204Z,3.20
2019-03-19T05:21:46.789Z,29.30
2019-03-19T05:24:50.398Z,24.00
2019-03-19T05:27:54.001Z,25.20
2019-03-19T05:30:57.593Z,23.33
2019-03-19T05:34:01.190Z,20.80
2019-03-19T05:37:05.058Z,20.80
2019-03-19T05:40:09.677Z,20.00
2019-03-19T05:43:13.268Z,19.33
2019-03-19T05:46:17.281Z,18.07
2019-03-19T05:49:20.949Z,18.47
2019-03-19T05:52:24.533Z,13.60
2019-03-19T05:55:28.150Z,12.90
2019-03-19T05:58:31.745Z,9.70
2019-03-19T06:01:36.047Z,22.97
2019-03-19T06:04:39.651Z,18.20
2019-03-19T06:07:43.241Z,12.77
2019-03-19T06:10:47.178Z,44.47
2019-03-19T06:13:50.783Z,41.60
2019-03-19T06:16:54.376Z,37.20
2019-03-19T06:19:58.309Z,32.73
2019-03-19T06:23:01.895Z,31.00
2019-03-19T06:26:05.542Z,27.97
2019-03-19T06:29:09.462Z,27.67
2019-03-19T06:32:13.059Z,26.10
2019-03-19T06:35:17.095Z,25.60
2019-03-19T06:38:20.687Z,25.60
2019-03-19T06:41:24.633Z,23.80
2019-03-19T06:44:28.227Z,24.13
2019-03-19T06:47:31.819Z,23.67
2019-03-19T06:50:44.607Z,22.73
2019-03-19T06:53:40.755Z,21.27
2019-03-19T06:56:44.451Z,20.80
2019-03-19T06:59:48.029Z,19.80
2019-03-19T07:02:51.878Z,20.50
2019-03-19T07:05:55.494Z,18.97
2019-03-19T07:08:59.102Z,18.93
2019-03-19T07:12:02.702Z,18.33
2019-03-19T07:15:07.689Z,16.67
2019-03-19T07:18:11.295Z,17.00
2019-03-19T07:21:15.279Z,16.90
2019-03-19T07:24:18.869Z,16.47
2019-03-19T07:27:22.490Z,16.33
2019-03-19T07:30:26.263Z,15.77
2019-03-19T07:33:29.854Z,14.93
2019-03-19T07:36:33.456Z,14.77
2019-03-19T07:39:37.381Z,14.23
2019-03-19T07:42:40.986Z,13.47
2019-03-19T07:45:44.578Z,14.10
2019-03-19T07:48:48.173Z,14.23
2019-03-19T07:51:53.487Z,13.77
2019-03-19T07:54:57.511Z,13.70
2019-03-19T07:58:01.102Z,13.00
2019-03-19T08:01:04.763Z,12.97
2019-03-19T08:04:08.680Z,13.10
2019-03-19T08:07:12.309Z,12.33
2019-03-19T08:10:16.206Z,12.17
2019-03-19T08:13:20.135Z,12.27
2019-03-19T08:16:27.714Z,11.23
2019-03-19T08:19:29.055Z,11.93
2019-03-19T08:22:33.397Z,10.57
2019-03-19T08:25:37.254Z,10.87
2019-03-19T08:28:41.178Z,10.23
2019-03-19T08:31:44.771Z,10.67
2019-03-19T08:34:48.640Z,10.93
2019-03-19T08:37:52.309Z,10.53
2019-03-19T08:40:56.181Z,9.73
2019-03-19T08:43:59.777Z,11.73
2019-03-19T08:47:03.521Z,10.80
2019-03-19T08:50:08.560Z,10.97
2019-03-19T08:53:12.223Z,11.70
2019-03-19T08:56:15.805Z,10.48
2019-03-19T08:59:19.407Z,8.98
2019-03-19T09:02:22.995Z,9.20
2019-03-19T09:05:26.912Z,10.00
2019-03-19T09:08:30.506Z,9.90
2019-03-19T09:11:36.530Z,10.10
2019-03-19T09:14:40.090Z,9.20
2019-03-19T09:17:43.984Z,8.58
2019-03-19T09:20:47.595Z,9.03
2019-03-19T09:23:51.248Z,8.60
2019-03-19T09:26:54.848Z,8.88
2019-03-19T09:29:59.066Z,8.50
2019-03-19T09:33:03.208Z,8.05
2019-03-19T09:36:06.800Z,7.95
2019-03-19T09:39:10.468Z,8.00
2019-03-19T09:42:14.049Z,7.65
2019-03-19T09:45:17.841Z,7.05
2019-03-19T09:48:21.452Z,6.72
2019-03-19T09:51:25.055Z,7.10
2019-03-19T09:54:28.887Z,6.45
2019-03-19T09:57:32.491Z,6.60
2019-03-19T10:00:36.396Z,6.67
2019-03-19T10:03:40.320Z,6.63
2019-03-19T10:06:43.915Z,6.33
2019-03-19T10:09:47.823Z,5.87
2019-03-19T10:12:51.830Z,6.00
2019-03-19T10:15:55.493Z,6.23
2019-03-19T10:18:59.104Z,6.10
2019-03-19T10:22:02.946Z,6.03
2019-03-19T10:25:07.756Z,6.10
2019-03-19T10:28:11.586Z,5.87
2019-03-19T10:31:15.169Z,5.07
2019-03-19T10:34:19.324Z,5.40
2019-03-19T10:37:22.925Z,5.10
2019-03-19T10:40:26.826Z,5.10
2019-03-19T10:43:30.958Z,5.30
2019-03-19T10:46:34.916Z,4.90
2019-03-19T10:49:38.853Z,5.33
2019-03-19T10:52:42.434Z,5.23
2019-03-19T10:55:46.018Z,4.93
2019-03-19T10:58:49.656Z,4.83
2019-03-19T11:01:53.490Z,4.77
2019-03-19T11:04:57.072Z,4.33
2019-03-19T11:08:00.733Z,4.83
2019-03-19T11:11:04.318Z,4.37
2019-03-19T11:14:08.216Z,4.20
2019-03-19T11:17:11.795Z,4.40
2019-03-19T11:20:16.285Z,4.30
2019-03-19T11:23:19.867Z,4.30
2019-03-19T11:26:23.477Z,4.27
2019-03-19T11:29:27.363Z,4.47
2019-03-19T11:32:31.268Z,3.80
2019-03-19T11:35:35.405Z,4.20
2019-03-19T11:38:38.987Z,4.20
2019-03-19T11:41:42.870Z,4.33
2019-03-19T11:44:46.550Z,4.10
2019-03-19T11:47:50.201Z,3.27
2019-03-19T11:50:54.089Z,4.00
2019-03-19T11:53:57.707Z,4.07
2019-03-19T11:57:01.845Z,3.50
2019-03-19T12:00:11.494Z,3.77
2019-03-19T12:03:16.334Z,3.70
2019-03-19T12:06:18.404Z,3.17
2019-03-19T12:09:22.332Z,3.47
2019-03-19T12:12:25.924Z,3.43
2019-03-19T12:15:29.512Z,3.33
2019-03-19T12:18:33.099Z,3.17
2019-03-19T12:21:37.108Z,2.87
2019-03-19T12:24:41.064Z,3.30
2019-03-19T12:27:44.732Z,3.17
2019-03-19T12:30:48.315Z,2.93
2019-03-19T12:33:51.896Z,3.13
2019-03-19T12:36:55.489Z,3.10
2019-03-19T12:39:59.070Z,2.83
2019-03-19T12:43:03.106Z,2.87
2019-03-19T12:46:06.704Z,2.73
2019-03-19T12:49:10.608Z,3.00
2019-03-19T12:52:14.515Z,2.70
2019-03-19T12:55:18.099Z,2.30
2019-03-19T12:58:22.035Z,2.70
2019-03-19T13:01:28.466Z,2.90
2019-03-19T13:04:32.195Z,2.63
2019-03-19T13:07:36.148Z,2.77
2019-03-19T13:10:39.791Z,2.90
2019-03-19T13:13:43.328Z,2.50
2019-03-19T13:16:46.945Z,2.70
2019-03-19T13:19:50.540Z,2.67
2019-03-19T13:22:54.193Z,2.57
2019-03-19T13:25:57.775Z,2.50
2019-03-19T13:29:01.652Z,2.70
2019-03-19T13:32:05.223Z,2.60
2019-03-19T13:35:09.192Z,2.80
2019-03-19T13:38:13.404Z,2.40
2019-03-19T13:41:17.244Z,2.40
2019-03-19T13:44:20.827Z,2.30
2019-03-19T13:47:25.029Z,2.30
2019-03-19T13:50:28.690Z,2.20
2019-03-19T13:53:32.275Z,2.17
2019-03-19T13:56:35.876Z,2.33
2019-03-19T13:59:39.755Z,2.17
2019-03-19T14:02:43.983Z,2.30
2019-03-19T14:05:47.880Z,2.10
2019-03-19T14:08:51.462Z,2.33
2019-03-19T14:11:55.115Z,1.90
2019-03-19T14:14:59.004Z,2.40
2019-03-19T14:18:02.593Z,2.10
2019-03-19T14:21:06.207Z,2.00
2019-03-19T14:24:09.819Z,2.00
2019-03-19T14:27:13.393Z,1.90
2019-03-19T14:30:17.727Z,2.00
2019-03-19T14:33:21.653Z,1.80
2019-03-19T14:36:25.579Z,2.00
2019-03-19T14:39:29.164Z,2.00
2019-03-19T14:42:32.751Z,2.13
2019-03-19T14:45:36.333Z,2.30
2019-03-19T14:48:39.923Z,1.70
2019-03-19T14:51:43.548Z,1.93
2019-03-19T14:54:47.123Z,1.97
2019-03-19T14:57:51.299Z,1.97
2019-03-19T15:00:55.220Z,1.80
2019-03-19T15:03:58.819Z,1.77
2019-03-19T15:07:02.428Z,2.20
2019-03-19T15:10:08.147Z,2.10
2019-03-19T15:13:11.827Z,2.07
2019-03-19T15:16:15.443Z,2.10
2019-03-19T15:19:19.024Z,1.60
2019-03-19T15:22:32.075Z,2.37
2019-03-19T15:25:27.919Z,1.97
2019-03-19T15:28:31.505Z,1.90
2019-03-19T15:31:35.403Z,2.20
2019-03-19T15:34:39.007Z,1.97
2019-03-19T15:37:42.775Z,1.80
2019-03-19T15:40:46.645Z,1.73
2019-03-19T15:43:50.224Z,1.70
2019-03-19T15:46:54.091Z,1.80
2019-03-19T15:49:57.670Z,1.70
2019-03-19T15:53:01.255Z,1.70
2019-03-19T15:56:04.874Z,1.97
2019-03-19T15:59:09.434Z,1.53
2019-03-19T16:02:13.108Z,1.77
2019-03-19T16:05:16.759Z,1.73
2019-03-19T16:08:20.603Z,1.90
2019-03-19T16:11:24.447Z,1.47
2019-03-19T16:14:28.051Z,1.50
2019-03-19T16:17:31.988Z,1.70
2019-03-19T16:20:35.642Z,1.57
2019-03-19T16:23:39.251Z,1.67
2019-03-19T16:26:43.298Z,1.70
2019-03-19T16:29:46.886Z,1.77
2019-03-19T16:32:50.508Z,1.97
2019-03-19T16:35:54.101Z,1.97
2019-03-19T16:38:58.030Z,1.60
2019-03-19T16:42:01.699Z,2.80
2019-03-19T16:45:05.843Z,9.80
2019-03-19T16:48:09.434Z,3.90
2019-03-19T16:51:13.554Z,2.80
2019-03-19T16:54:17.193Z,4.17
2019-03-19T16:57:21.703Z,6.27
2019-03-19T17:00:25.625Z,5.70
2019-03-19T17:03:29.223Z,5.00
2019-03-19T17:06:32.803Z,4.50
2019-03-19T17:09:36.744Z,4.40
2019-03-19T17:12:42.028Z,3.87
2019-03-19T17:15:45.913Z,4.07
2019-03-19T17:18:49.576Z,3.87
2019-03-19T17:21:53.793Z,4.13
2019-03-19T17:24:57.413Z,4.23
2019-03-19T17:28:01.021Z,4.13
2019-03-19T17:31:04.682Z,3.90
2019-03-19T17:34:08.558Z,3.80
2019-03-19T17:37:12.448Z,3.53
2019-03-19T17:40:16.138Z,4.40
2019-03-19T17:43:19.820Z,4.20
2019-03-19T17:46:23.401Z,3.80
2019-03-19T17:49:27.037Z,3.40
2019-03-19T17:52:30.620Z,3.67
2019-03-19T17:55:34.479Z,3.67
2019-03-19T17:58:38.068Z,3.50
2019-03-19T18:01:41.649Z,3.63
2019-03-19T18:04:45.911Z,2.97
2019-03-19T18:07:49.488Z,3.33
2019-03-19T18:10:53.084Z,3.30
2019-03-19T18:13:56.662Z,3.13
2019-03-19T18:17:00.253Z,3.20
2019-03-19T18:20:04.956Z,3.23
2019-03-19T18:23:08.544Z,3.30
2019-03-19T18:26:12.676Z,3.20
2019-03-19T18:29:16.255Z,2.90
2019-03-19T18:32:19.861Z,3.03
2019-03-19T18:35:23.496Z,3.23
2019-03-19T18:38:27.089Z,3.10
2019-03-19T18:41:30.997Z,2.83
2019-03-19T18:44:34.586Z,3.23
2019-03-19T18:47:38.483Z,2.70
2019-03-19T18:50:42.060Z,2.63
2019-03-19T18:53:45.883Z,2.70
2019-03-19T18:56:49.468Z,2.67
2019-03-19T18:59:53.044Z,2.63
2019-03-19T19:02:56.942Z,2.37
2019-03-19T19:06:00.795Z,2.60
2019-03-19T19:09:06.488Z,2.50
2019-03-19T19:12:10.073Z,2.80
2019-03-19T19:15:14.813Z,2.70
2019-03-19T19:18:18.734Z,2.77
2019-03-19T19:21:22.583Z,2.67
2019-03-19T19:24:26.178Z,2.63
2019-03-19T19:27:29.768Z,2.27
2019-03-19T19:30:33.791Z,2.37
2019-03-19T19:33:37.380Z,2.40
2019-03-19T19:36:40.955Z,2.40
2019-03-19T19:39:44.856Z,2.23
2019-03-19T19:42:48.847Z,2.50
2019-03-19T19:45:52.768Z,2.33
2019-03-19T19:48:56.376Z,2.23
2019-03-19T19:52:00.235Z,2.17
2019-03-19T19:55:04.281Z,2.07
2019-03-19T19:58:08.165Z,2.40
2019-03-19T20:01:11.984Z,2.17
2019-03-19T20:04:15.886Z,2.27
2019-03-19T20:07:19.791Z,2.50
2019-03-19T20:10:23.390Z,2.30
2019-03-19T20:13:27.311Z,2.60
2019-03-19T20:16:30.960Z,2.47
2019-03-19T20:19:34.829Z,2.20
2019-03-19T20:22:38.435Z,2.13
2019-03-19T20:25:42.036Z,2.00
2019-03-19T20:28:45.957Z,2.17
2019-03-19T20:31:49.875Z,2.20
2019-03-19T20:34:53.759Z,22.53
2019-03-19T20:37:57.416Z,17.43
2019-03-19T20:41:00.994Z,8.93
2019-03-19T20:44:04.858Z,5.47
2019-03-19T20:47:09.521Z,4.93
2019-03-19T20:50:19.152Z,4.50
2019-03-19T20:53:22.823Z,5.17
2019-03-19T20:56:26.642Z,18.07
2019-03-19T20:59:30.915Z,35.37
2019-03-19T21:02:34.809Z,40.57
2019-03-19T21:05:38.427Z,38.30
2019-03-19T21:08:42.052Z,10.50
2019-03-19T21:11:45.657Z,8.77
2019-03-19T21:14:49.382Z,18.10
2019-03-19T21:17:53.069Z,34.50
2019-03-19T21:20:56.694Z,34.13
2019-03-19T21:24:00.289Z,33.83
2019-03-19T21:27:03.899Z,33.83
2019-03-19T21:30:07.897Z,32.93
2019-03-19T21:33:11.502Z,29.97
2019-03-19T21:36:15.128Z,30.63
2019-03-19T21:39:18.734Z,28.40
2019-03-19T21:42:22.354Z,28.10
2019-03-19T21:45:26.064Z,10.40
2019-03-19T21:48:29.682Z,5.80
2019-03-19T21:51:33.912Z,6.73
2019-03-19T21:54:37.514Z,5.40
2019-03-19T21:57:41.107Z,19.70
2019-03-19T22:00:44.770Z,43.37
2019-03-19T22:03:48.646Z,39.53
2019-03-19T22:06:52.872Z,32.70
2019-03-19T22:09:56.493Z,31.40
2019-03-19T22:13:00.333Z,29.37
2019-03-19T22:16:03.960Z,27.43
2019-03-19T22:19:08.199Z,25.80
2019-03-19T22:22:11.790Z,24.87
2019-03-19T22:25:15.530Z,23.57
2019-03-19T22:28:19.441Z,25.17
2019-03-19T22:31:23.131Z,23.63
2019-03-19T22:34:26.723Z,21.03
2019-03-19T22:37:30.678Z,31.83
2019-03-19T22:40:34.545Z,38.53
2019-03-19T22:43:38.279Z,39.10
2019-03-19T22:46:41.880Z,38.63
2019-03-19T22:49:45.541Z,38.20
2019-03-19T22:52:49.135Z,35.87
2019-03-19T22:55:52.721Z,37.00
2019-03-19T22:58:56.374Z,34.83
2019-03-19T23:01:59.990Z,33.17
2019-03-19T23:05:03.662Z,33.10
2019-03-19T23:08:07.338Z,31.70
2019-03-19T23:11:10.998Z,29.97
2019-03-19T23:14:15.052Z,29.97
2019-03-19T23:17:18.710Z,27.03
2019-03-19T23:20:22.552Z,23.03
2019-03-19T23:23:26.228Z,21.77
2019-03-19T23:26:30.478Z,21.30
2019-03-19T23:29:34.083Z,21.33
2019-03-19T23:32:37.971Z,18.93
2019-03-19T23:35:41.573Z,18.53
2019-03-19T23:38:45.508Z,19.13
2019-03-19T23:41:49.112Z,16.73
2019-03-19T23:44:52.715Z,16.73
2019-03-19T23:47:56.333Z,17.13
2019-03-19T23:51:00.018Z,16.57
2019-03-19T23:54:03.735Z,15.43
2019-03-19T23:57:07.329Z,15.60
